Details From CYZH - SLAVE LAKE
To PAGY - SKAGWAY
Flight Number -
Tags generated
Created
Modified
Stats Distance 739 nm / 1,368 km
Max Altitude 34,000 ft / 10,363 m
Waypoints 5
Social Downloads 1
Likes 0
Share VATSIM

Download

Looking for another format? Having issues loading an existing format? Contact us
Advertisement - Login to hide

Notes

Basic altitude profile: - Ascent Rate: 2500ft/min - Ascent Speed: 250kts - Cruise Altitude: 35000ft - Cruise Speed: 420kts - Descent Rate: 1500ft/min - Descent Speed: 250kts Options: - Use NATs: yes - Use PACOTS: yes - Use low airways: yes - Use high airways: yes

Route

CYZH YPE NCA12 KITAR PAGY

ID Type Via Altitude Latitude Longitude Leg Dist Tot Dist Heading (true) Name
O CYZH APT - 0 ft / 0 m 55.29330˚ -114.77831˚ - 0 nm - SLAVE LAKE
YPE VOR - 34,000 ft / 10,363 m 56.20692˚ -117.51181˚ 107 nm 107 nm 302° / 300° PEACE RIVER VOR-DME
IGSEL FIX NCA12 (AWY-HI) 34,000 ft / 10,363 m 58.22778˚ -125.00000˚ 271 nm 379 nm 300° / 293° -
KITAR FIX NCA12 (AWY-HI) 28,000 ft / 8,534 m 60.00000˚ -135.00000˚ 325 nm 705 nm 293° / 285° -
O PAGY APT - 0 ft / 0 m 59.46006˚ -135.31566˚ 33 nm 738 nm 197° / 196° SKAGWAY

Altitude Profile

Advertisement - Login to hide

Weather


0- 5 10 15 20 25 30 35+ Temperature / ° C

Clouds and Precipitation
Forecast for 2017-12-11 06:00 UTC. Updated an hour ago

Ground ~20,000 ft ~40,000 ft Winds

CYZH

Details ICAO CYZH (YZH)
Name SLAVE LAKE
Region Canada
Timezone America/Edmonton (UTC-7.0)
Stats Elevation 1,912 ft / 583 m (AMSL)
Location 55.293303° -114.778310°
Runways 1
Magnetic Variation 15.293° E

METAR

CYZH 110600Z AUTO VRB02KT 9SM SCT220 SCT240 01/M03 A3025 RMK SLP268

Decode

TAF

TAF CYZH 110038Z 1101/1113 27020G30KT P6SM SKC BECMG 1102/1104 28012KT FM111000 28005KT P6SM FEW140 RMK FCST BASED ON AUTO OBS. NXT FCST BY 110700Z

Decode

Departure Runways

ID Width Length Bearing (true) Bearing (mag) Surface Threshold Offset Overrun Length
10 100 ft / 30 m 5,535 ft / 1,687 m 114.74° 99.45° Asphalt 0 ft / 0 m 0 ft / 0 m
28 100 ft / 30 m 5,535 ft / 1,687 m 294.76° 279.47° Asphalt 557 ft / 170 m 0 ft / 0 m

PAGY

Details ICAO PAGY (SGY)
Name SKAGWAY
Region USA (Alaska)
Timezone America/Juneau (UTC-9.0)
Stats Elevation 44 ft / 13 m (AMSL)
Location 59.460062° -135.315661°
Runways 1
Magnetic Variation 19.352° E

METAR

PAGY 110553Z AUTO 07003KT 4SM RA BR OVC029 04/03 A2990 RMK SLP126 P0011 60016 T00440028 10067 20039 56029 TSNO $ VIA AUTODIAL

Decode

TAF

TAF PAGY 110537Z 1106/1206 03005KT P6SM -RA OVC040 FM110900 20017KT 5SM RA BR BKN015 OVC030 FM111800 21009KT P6SM -RA SCT015 OVC035 AMD LTD TO CLD VIS AND WIND

Decode

Destination Runways

ID Width Length Bearing (true) Bearing (mag) Surface Threshold Offset Overrun Length
02 75 ft / 23 m 3,542 ft / 1,080 m 43.94° 24.59° Asphalt 0 ft / 0 m 299 ft / 91 m
20 75 ft / 23 m 3,542 ft / 1,080 m 223.95° 204.60° Asphalt 0 ft / 0 m 299 ft / 91 m